createdAt,value
2018-06-28T00:00:39.638Z,102253.63
2018-06-28T00:03:08.156Z,102249.48
2018-06-28T00:05:36.678Z,102247.95
2018-06-28T00:08:05.382Z,102251.08
2018-06-28T00:10:33.894Z,102249.88
2018-06-28T00:13:02.582Z,102257.05
2018-06-28T00:15:31.144Z,102262.12
2018-06-28T00:17:59.692Z,102254.44
2018-06-28T00:20:28.257Z,102253.30
2018-06-28T00:22:56.704Z,102258.09
2018-06-28T00:25:25.290Z,102257.79
2018-06-28T00:27:53.748Z,102258.84
2018-06-28T00:30:22.290Z,102257.17
2018-06-28T00:32:50.709Z,102257.21
2018-06-28T00:35:19.209Z,102259.95
2018-06-28T00:37:47.681Z,102259.23
2018-06-28T00:40:16.190Z,102255.30
2018-06-28T00:42:44.620Z,102267.35
2018-06-28T00:45:13.154Z,102262.00
2018-06-28T00:47:42.148Z,102262.47
2018-06-28T00:50:10.629Z,102266.88
2018-06-28T00:52:39.201Z,102261.54
2018-06-28T00:55:07.704Z,102262.71
2018-06-28T00:57:36.174Z,102272.00
2018-06-28T01:00:05.090Z,102264.94
2018-06-28T01:02:33.538Z,102263.57
2018-06-28T01:05:02.088Z,102266.07
2018-06-28T01:07:30.599Z,102258.42
2018-06-28T01:09:59.211Z,102261.26
2018-06-28T01:12:27.717Z,102264.25
2018-06-28T01:14:56.297Z,102260.70
2018-06-28T01:17:24.836Z,102258.02
2018-06-28T01:19:53.329Z,102254.85
2018-06-28T01:22:21.810Z,102254.81
2018-06-28T01:24:50.335Z,102260.50
2018-06-28T01:27:18.880Z,102258.62
2018-06-28T01:29:47.330Z,102258.06
2018-06-28T01:32:15.729Z,102248.32
2018-06-28T01:34:44.173Z,102254.39
2018-06-28T01:37:12.685Z,102252.09
2018-06-28T01:39:41.184Z,102251.14
2018-06-28T01:42:21.776Z,102257.27
2018-06-28T01:44:50.262Z,102254.05
2018-06-28T01:47:18.817Z,102253.87
2018-06-28T01:49:47.287Z,102257.21
2018-06-28T01:52:15.777Z,102256.74
2018-06-28T01:54:44.249Z,102255.50
2018-06-28T01:57:12.736Z,102251.05
2018-06-28T01:59:41.260Z,102255.41
2018-06-28T02:02:09.805Z,102255.03
2018-06-28T02:04:38.265Z,102261.19
2018-06-28T02:07:06.773Z,102258.88
2018-06-28T02:09:35.225Z,102260.16
2018-06-28T02:12:03.757Z,102268.16
2018-06-28T02:14:32.195Z,102266.31
2018-06-28T02:17:00.688Z,102266.18
2018-06-28T02:19:29.145Z,102266.61
2018-06-28T02:21:57.689Z,102266.98
2018-06-28T02:24:26.125Z,102268.22
2018-06-28T02:26:54.613Z,102264.20
2018-06-28T02:29:24.031Z,102261.50
2018-06-28T02:31:52.500Z,102258.34
2018-06-28T02:34:20.986Z,102263.59
2018-06-28T02:36:49.408Z,102261.84
2018-06-28T02:39:17.960Z,102265.77
2018-06-28T02:41:46.409Z,102264.36
2018-06-28T02:44:14.905Z,102267.05
2018-06-28T02:46:43.440Z,102264.73
2018-06-28T02:49:11.840Z,102259.25
2018-06-28T02:51:40.557Z,102257.03
2018-06-28T02:54:09.453Z,102263.23
2018-06-28T02:56:37.928Z,102261.48
2018-06-28T02:59:06.400Z,102262.75
2018-06-28T03:01:35.239Z,102273.82
2018-06-28T03:04:03.792Z,102273.35
2018-06-28T03:06:32.275Z,102277.80
2018-06-28T03:09:00.789Z,102277.23
2018-06-28T03:11:29.225Z,102276.00
2018-06-28T03:13:57.815Z,102275.09
2018-06-28T03:16:26.223Z,102272.31
2018-06-28T03:18:54.718Z,102276.23
2018-06-28T03:21:23.161Z,102276.19
2018-06-28T03:23:51.844Z,102271.84
2018-06-28T03:26:20.339Z,102277.23
2018-06-28T03:28:48.818Z,102274.58
2018-06-28T03:31:17.309Z,102271.93
2018-06-28T03:33:45.719Z,102267.58
2018-06-28T03:36:15.163Z,102273.40
2018-06-28T03:38:43.692Z,102268.09
2018-06-28T03:41:12.172Z,102265.92
2018-06-28T03:43:40.585Z,102267.34
2018-06-28T03:46:09.134Z,102261.99
2018-06-28T03:48:37.573Z,102270.51
2018-06-28T03:51:14.392Z,102265.30
2018-06-28T03:53:42.852Z,102270.69
2018-06-28T03:56:11.238Z,102268.89
2018-06-28T03:59:01.409Z,102271.16
2018-06-28T04:01:29.919Z,102276.12
2018-06-28T04:03:58.884Z,102268.27
2018-06-28T04:06:27.614Z,102276.30
2018-06-28T04:08:56.410Z,102280.70
2018-06-28T04:11:25.092Z,102283.02
2018-06-28T04:13:53.631Z,102280.98
2018-06-28T04:16:22.107Z,102280.59
2018-06-28T04:18:50.537Z,102283.33
2018-06-28T04:21:19.113Z,102287.14
2018-06-28T04:23:47.681Z,102275.34
2018-06-28T04:26:16.100Z,102275.66
2018-06-28T04:28:44.607Z,102273.87
2018-06-28T04:31:13.106Z,102277.59
2018-06-28T04:33:41.587Z,102268.13
2018-06-28T04:36:10.171Z,102266.36
2018-06-28T04:38:38.809Z,102265.78
2018-06-28T04:41:07.438Z,102268.47
2018-06-28T04:43:35.919Z,102268.08
2018-06-28T04:46:04.412Z,102265.78
2018-06-28T04:49:18.118Z,102277.76
2018-06-28T04:51:46.628Z,102283.61
2018-06-28T04:54:15.122Z,102286.86
2018-06-28T04:56:43.604Z,102280.87
2018-06-28T04:59:12.188Z,102273.98
2018-06-28T05:01:40.719Z,102275.16
2018-06-28T05:04:09.292Z,102274.12
2018-06-28T05:09:03.602Z,102274.17
2018-06-28T05:11:32.126Z,102269.84
2018-06-28T05:14:00.606Z,102271.30
2018-06-28T05:16:29.067Z,102266.06
2018-06-28T05:18:57.525Z,102267.42
2018-06-28T05:21:26.037Z,102265.74
2018-06-28T05:24:20.750Z,102266.32
2018-06-28T05:26:49.230Z,102266.48
2018-06-28T05:29:17.811Z,102262.58
2018-06-28T05:31:46.283Z,102263.53
2018-06-28T05:34:14.793Z,102262.80
2018-06-28T05:36:43.229Z,102266.98
2018-06-28T05:39:12.261Z,102263.63
2018-06-28T05:41:40.716Z,102272.23
2018-06-28T05:44:09.230Z,102267.92
2018-06-28T05:46:37.752Z,102262.25
2018-06-28T05:49:06.304Z,102262.83
2018-06-28T05:51:34.778Z,102267.89
2018-06-28T05:54:03.284Z,102269.78
2018-06-28T05:56:31.844Z,102265.06
2018-06-28T05:59:00.325Z,102266.94
2018-06-28T06:01:28.962Z,102263.53
2018-06-28T06:03:57.589Z,102268.95
2018-06-28T06:06:26.195Z,102266.88
2018-06-28T06:08:54.856Z,102266.09
2018-06-28T06:11:23.360Z,102275.10
2018-06-28T06:13:51.813Z,102270.31
2018-06-28T06:16:20.896Z,102269.98
2018-06-28T06:18:49.310Z,102274.05
2018-06-28T06:21:17.853Z,102270.99
2018-06-28T06:23:46.461Z,102270.62
2018-06-28T06:26:14.950Z,102276.03
2018-06-28T06:28:43.432Z,102277.44
2018-06-28T06:31:11.942Z,102282.90
2018-06-28T06:33:40.386Z,102274.98
2018-06-28T06:36:08.877Z,102271.92
2018-06-28T06:38:37.901Z,102267.03
2018-06-28T06:41:06.957Z,102268.84
2018-06-28T06:43:35.461Z,102269.33
2018-06-28T06:46:03.964Z,102269.85
2018-06-28T06:48:32.368Z,102271.19
2018-06-28T06:51:00.894Z,102270.31
2018-06-28T06:53:29.467Z,102264.60
2018-06-28T06:55:57.909Z,102262.41
2018-06-28T06:58:26.404Z,102263.77
2018-06-28T07:00:54.927Z,102261.55
2018-06-28T07:03:23.410Z,102261.09
2018-06-28T07:05:51.980Z,102263.42
2018-06-28T07:08:20.906Z,102257.27
2018-06-28T07:10:49.720Z,102263.16
2018-06-28T07:13:18.290Z,102256.94
2018-06-28T07:15:46.730Z,102257.84
2018-06-28T07:18:15.208Z,102260.54
2018-06-28T07:20:43.698Z,102257.93
2018-06-28T07:23:12.253Z,102262.94
2018-06-28T07:25:40.884Z,102263.42
2018-06-28T07:28:09.456Z,102258.08
2018-06-28T07:30:37.928Z,102259.89
2018-06-28T07:33:06.890Z,102260.37
2018-06-28T07:35:35.406Z,102255.52
2018-06-28T07:38:03.865Z,102263.10
2018-06-28T07:40:32.421Z,102266.71
2018-06-28T07:43:00.935Z,102259.14
2018-06-28T07:45:29.346Z,102261.82
2018-06-28T07:47:57.811Z,102260.48
2018-06-28T07:50:26.329Z,102258.70
2018-06-28T07:52:54.975Z,102258.70
2018-06-28T07:55:23.487Z,102252.89
2018-06-28T07:57:51.940Z,102250.65
2018-06-28T08:00:20.394Z,102250.65
2018-06-28T08:02:48.925Z,102248.44
2018-06-28T08:05:17.349Z,102250.69
2018-06-28T08:08:16.501Z,102252.91
2018-06-28T08:10:45.115Z,102249.34
2018-06-28T08:13:17.153Z,102245.30
2018-06-28T08:15:45.641Z,102246.63
2018-06-28T08:18:14.094Z,102244.81
2018-06-28T08:20:42.726Z,102245.66
2018-06-28T08:23:11.215Z,102244.30
2018-06-28T08:25:39.763Z,102246.05
2018-06-28T08:28:08.339Z,102242.44
2018-06-28T08:30:36.813Z,102242.81
2018-06-28T08:33:05.546Z,102245.43
2018-06-28T08:35:33.960Z,102245.39
2018-06-28T08:38:02.468Z,102246.23
2018-06-28T08:40:30.902Z,102251.55
2018-06-28T08:42:59.361Z,102247.95
2018-06-28T08:45:27.922Z,102242.06
2018-06-28T08:47:56.345Z,102249.21
2018-06-28T08:50:24.925Z,102240.25
2018-06-28T08:52:53.468Z,102238.84
2018-06-28T08:55:22.133Z,102244.60
2018-06-28T08:57:50.705Z,102246.30
2018-06-28T09:00:19.278Z,102243.52
2018-06-28T09:02:47.784Z,102238.08
2018-06-28T09:05:16.285Z,102230.91
2018-06-28T09:07:44.745Z,102231.70
2018-06-28T09:10:13.237Z,102232.52
2018-06-28T09:12:41.721Z,102225.31
2018-06-28T09:15:10.398Z,102226.56
2018-06-28T09:17:38.885Z,102217.11
2018-06-28T09:20:07.602Z,102217.88
2018-06-28T09:22:36.422Z,102223.58
2018-06-28T09:25:05.254Z,102218.55
2018-06-28T09:27:33.814Z,102214.02
2018-06-28T09:30:02.330Z,102208.61
2018-06-28T09:32:30.805Z,102215.19
2018-06-28T09:34:59.315Z,102212.00
2018-06-28T09:37:28.010Z,102210.56
2018-06-28T09:39:56.652Z,102207.66
2018-06-28T09:42:25.227Z,102205.67
2018-06-28T09:44:53.820Z,102206.42
2018-06-28T09:47:22.296Z,102206.80
2018-06-28T09:49:50.825Z,102201.23
2018-06-28T09:52:19.413Z,102207.93
2018-06-28T09:54:48.058Z,102205.64
2018-06-28T09:57:16.627Z,102199.17
2018-06-28T09:59:45.120Z,102195.43
2018-06-28T10:02:13.601Z,102187.80
2018-06-28T10:04:42.028Z,102184.37
2018-06-28T10:07:10.588Z,102181.92
2018-06-28T10:09:39.343Z,102187.55
2018-06-28T10:12:07.885Z,102182.70
2018-06-28T10:14:36.535Z,102174.29
2018-06-28T10:17:05.013Z,102175.87
2018-06-28T10:19:33.566Z,102169.12
2018-06-28T10:22:02.080Z,102173.14
2018-06-28T10:24:30.581Z,102160.25
2018-06-28T10:26:59.034Z,102157.80
2018-06-28T10:29:27.510Z,102158.41
2018-06-28T10:31:56.788Z,102155.59
2018-06-28T10:34:25.301Z,102149.94
2018-06-28T10:36:53.902Z,102148.08
2018-06-28T10:39:22.439Z,102151.64
2018-06-28T10:41:50.902Z,102150.23
2018-06-28T10:44:19.410Z,102147.31
2018-06-28T10:46:47.899Z,102145.77
2018-06-28T10:49:16.485Z,102139.82
2018-06-28T10:51:44.951Z,102142.89
2018-06-28T10:54:13.487Z,102132.83
2018-06-28T10:56:42.050Z,102137.91
2018-06-28T10:59:10.603Z,102136.86
2018-06-28T11:01:39.309Z,102136.47
2018-06-28T11:04:07.873Z,102130.67
2018-06-28T11:06:36.341Z,102132.50
2018-06-28T11:09:08.024Z,102138.34
2018-06-28T11:11:36.756Z,102136.20
2018-06-28T11:14:05.220Z,102134.55
2018-06-28T11:16:33.786Z,102125.39
2018-06-28T11:19:02.245Z,102132.33
2018-06-28T11:21:31.253Z,102115.67
2018-06-28T11:23:59.690Z,102115.25
2018-06-28T11:26:28.184Z,102112.30
2018-06-28T11:28:56.690Z,102105.63
2018-06-28T11:31:25.196Z,102105.80
2018-06-28T11:33:54.028Z,102104.80
2018-06-28T11:36:22.569Z,102101.31
2018-06-28T11:38:51.373Z,102098.97
2018-06-28T11:41:19.917Z,102093.42
2018-06-28T11:43:48.529Z,102090.04
2018-06-28T11:46:17.004Z,102092.67
2018-06-28T11:49:00.552Z,102090.13
2018-06-28T11:51:28.961Z,102085.88
2018-06-28T11:53:57.441Z,102091.41
2018-06-28T11:56:25.937Z,102082.61
2018-06-28T11:58:54.352Z,102075.59
2018-06-28T12:01:22.929Z,102082.44
2018-06-28T12:03:51.500Z,102073.49
2018-06-28T12:06:20.376Z,102075.28
2018-06-28T12:08:49.930Z,102077.66
2018-06-28T12:11:18.556Z,102075.14
2018-06-28T12:13:47.051Z,102069.66
2018-06-28T12:16:15.831Z,102068.48
2018-06-28T12:18:44.363Z,102063.15
2018-06-28T12:21:12.937Z,102061.73
2018-06-28T12:23:41.505Z,102061.33
2018-06-28T12:26:10.009Z,102056.50
2018-06-28T12:28:38.524Z,102052.26
2018-06-28T12:31:07.093Z,102047.11
2018-06-28T12:33:35.614Z,102050.78
2018-06-28T12:36:04.101Z,102042.27
2018-06-28T12:38:33.105Z,102040.80
2018-06-28T12:41:01.573Z,102035.83
2018-06-28T12:43:30.877Z,102034.68
2018-06-28T12:46:00.485Z,102027.16
2018-06-28T12:48:29.065Z,102023.78
2018-06-28T12:50:57.627Z,102025.38
2018-06-28T12:53:26.120Z,102018.56
2018-06-28T12:56:29.825Z,102014.75
2018-06-28T12:58:59.843Z,102009.54
2018-06-28T13:01:28.934Z,102011.67
2018-06-28T13:03:57.737Z,102013.17
2018-06-28T13:06:26.340Z,102011.25
2018-06-28T13:08:55.617Z,102002.94
2018-06-28T13:11:24.496Z,102000.57
2018-06-28T13:13:53.280Z,101993.66
2018-06-28T13:16:22.725Z,101990.08
2018-06-28T13:18:51.342Z,101991.83
2018-06-28T13:21:19.857Z,101992.82
2018-06-28T13:23:48.394Z,101989.27
2018-06-28T13:26:17.641Z,101982.81
2018-06-28T13:28:46.425Z,101986.45
2018-06-28T13:31:14.973Z,101978.44
2018-06-28T13:33:43.602Z,101978.73
2018-06-28T13:36:12.105Z,101974.97
2018-06-28T13:38:40.664Z,101978.50
2018-06-28T13:41:09.362Z,101965.50
2018-06-28T13:43:37.719Z,101958.52
2018-06-28T13:46:06.409Z,101952.42
2018-06-28T13:48:34.905Z,101951.66
2018-06-28T13:51:03.497Z,101939.55
2018-06-28T13:53:32.087Z,101937.75
2018-06-28T13:56:00.642Z,101931.70
2018-06-28T13:58:29.078Z,101936.35
2018-06-28T14:00:57.619Z,101934.89
2018-06-28T14:03:26.177Z,101945.81
2018-06-28T14:05:54.633Z,101937.19
2018-06-28T14:08:23.048Z,101937.83
2018-06-28T14:10:51.606Z,101938.21
2018-06-28T14:13:20.126Z,101936.77
2018-06-28T14:15:48.596Z,101933.99
2018-06-28T14:18:17.108Z,101937.63
2018-06-28T14:20:45.659Z,101928.25
2018-06-28T14:23:14.101Z,101927.19
2018-06-28T14:25:42.644Z,101916.38
2018-06-28T14:28:11.428Z,101922.25
2018-06-28T14:30:40.321Z,101909.66
2018-06-28T14:33:08.860Z,101912.78
2018-06-28T14:35:37.489Z,101919.73
2018-06-28T14:38:06.259Z,101909.48
2018-06-28T14:40:34.725Z,101911.94
2018-06-28T14:43:03.660Z,101903.31
2018-06-28T14:45:32.534Z,101907.60
2018-06-28T14:48:01.403Z,101902.20
2018-06-28T14:50:29.944Z,101890.72
2018-06-28T14:52:58.456Z,101896.95
2018-06-28T14:55:26.940Z,101895.25
2018-06-28T14:57:55.467Z,101896.39
2018-06-28T15:00:24.072Z,101891.80
2018-06-28T15:02:52.629Z,101892.33
2018-06-28T15:05:21.091Z,101886.45
2018-06-28T15:07:49.687Z,101876.34
2018-06-28T15:10:18.257Z,101877.96
2018-06-28T15:12:46.833Z,101872.72
2018-06-28T15:15:15.469Z,101866.67
2018-06-28T15:17:43.944Z,101871.25
2018-06-28T15:20:12.468Z,101864.39
2018-06-28T15:22:41.054Z,101869.03
2018-06-28T15:25:28.264Z,101861.26
2018-06-28T15:27:56.757Z,101869.55
2018-06-28T15:30:25.237Z,101862.70
2018-06-28T15:32:53.715Z,101857.70
2018-06-28T15:35:22.141Z,101851.28
2018-06-28T15:37:50.661Z,101855.33
2018-06-28T15:40:19.140Z,101848.48
2018-06-28T15:42:47.648Z,101860.89
2018-06-28T15:45:16.187Z,101847.30
2018-06-28T15:47:44.633Z,101844.17
2018-06-28T15:50:13.270Z,101846.00
2018-06-28T15:52:41.757Z,101843.92
2018-06-28T15:55:10.241Z,101840.13
2018-06-28T15:57:38.717Z,101839.84
2018-06-28T16:00:07.741Z,101839.28
2018-06-28T16:02:36.298Z,101837.95
2018-06-28T16:05:05.122Z,101834.33
2018-06-28T16:07:33.861Z,101829.30
2018-06-28T16:10:02.324Z,101833.84
2018-06-28T16:12:30.741Z,101832.41
2018-06-28T16:14:59.297Z,101828.80
2018-06-28T16:17:31.149Z,101829.04
2018-06-28T16:20:02.359Z,101824.28
2018-06-28T16:22:31.363Z,101824.64
2018-06-28T16:25:00.190Z,101821.20
2018-06-28T16:27:28.772Z,101826.84
2018-06-28T16:29:57.372Z,101818.47
2018-06-28T16:32:25.865Z,101824.19
2018-06-28T16:34:54.326Z,101825.41
2018-06-28T16:37:22.779Z,101820.09
2018-06-28T16:39:51.378Z,101828.78
2018-06-28T16:42:19.932Z,101812.96
2018-06-28T16:44:48.465Z,101818.59
2018-06-28T16:47:16.945Z,101813.29
2018-06-28T16:49:48.821Z,101808.48
2018-06-28T16:52:17.385Z,101820.37
2018-06-28T16:54:45.835Z,101820.23
2018-06-28T16:57:14.284Z,101812.69
2018-06-28T16:59:42.956Z,101813.95
2018-06-28T17:02:11.276Z,101810.42
2018-06-28T17:04:40.462Z,101819.13
2018-06-28T17:07:09.046Z,101818.12
2018-06-28T17:09:37.658Z,101812.19
2018-06-28T17:12:06.341Z,101804.14
2018-06-28T17:14:35.139Z,101804.05
2018-06-28T17:17:03.675Z,101801.45
2018-06-28T17:19:32.276Z,101807.95
2018-06-28T17:22:01.031Z,101799.46
2018-06-28T17:24:30.158Z,101801.68
2018-06-28T17:26:59.103Z,101802.58
2018-06-28T17:29:27.658Z,101807.29
2018-06-28T17:31:56.261Z,101815.92
2018-06-28T17:34:24.625Z,101814.89
2018-06-28T17:36:53.109Z,101815.77
2018-06-28T17:39:21.680Z,101813.53
2018-06-28T17:41:50.155Z,101802.39
2018-06-28T17:44:18.666Z,101807.53
2018-06-28T17:46:47.122Z,101804.55
2018-06-28T17:49:15.591Z,101802.31
2018-06-28T17:51:44.762Z,101804.24
2018-06-28T17:54:13.775Z,101802.58
2018-06-28T17:56:42.333Z,101804.53
2018-06-28T17:59:10.838Z,101800.47
2018-06-28T18:01:39.257Z,101808.59
2018-06-28T18:04:07.900Z,101812.11
2018-06-28T18:06:36.567Z,101813.03
2018-06-28T18:09:08.379Z,101813.84
2018-06-28T18:11:37.275Z,101807.52
2018-06-28T18:14:06.069Z,101809.82
2018-06-28T18:16:47.722Z,101807.91
2018-06-28T18:19:16.583Z,101798.95
2018-06-28T18:21:45.117Z,101802.44
2018-06-28T18:24:13.636Z,101803.20
2018-06-28T18:26:42.074Z,101809.80
2018-06-28T18:29:10.592Z,101810.55
2018-06-28T18:31:39.259Z,101807.67
2018-06-28T18:34:07.835Z,101803.88
2018-06-28T18:36:36.346Z,101808.63
2018-06-28T18:39:08.101Z,101811.14
2018-06-28T18:41:37.179Z,101810.91
2018-06-28T18:44:05.795Z,101809.26
2018-06-28T18:46:34.604Z,101811.22
2018-06-28T18:49:03.126Z,101808.67
2018-06-28T18:51:31.684Z,101811.62
2018-06-28T18:54:00.306Z,101819.83
2018-06-28T18:56:28.925Z,101814.55
2018-06-28T18:58:57.383Z,101816.10
2018-06-28T19:01:26.043Z,101807.77
2018-06-28T19:03:54.552Z,101813.26
2018-06-28T19:06:23.258Z,101812.54
2018-06-28T19:08:51.825Z,101818.16
2018-06-28T19:11:20.582Z,101815.70
2018-06-28T19:13:54.565Z,101821.67
2018-06-28T19:16:29.529Z,101812.80
2018-06-28T19:18:58.063Z,101821.03
2018-06-28T19:21:32.526Z,101821.16
2018-06-28T19:24:01.032Z,101822.71
2018-06-28T19:26:29.677Z,101824.69
2018-06-28T19:29:02.356Z,101827.52
2018-06-28T19:31:36.072Z,101827.28
2018-06-28T19:34:04.602Z,101836.92
2018-06-28T19:36:33.144Z,101831.26
2018-06-28T19:39:06.912Z,101834.94
2018-06-28T19:41:40.618Z,101839.12
2018-06-28T19:44:09.131Z,101838.81
2018-06-28T19:46:37.743Z,101845.22
2018-06-28T19:49:10.461Z,101848.91
2018-06-28T19:51:44.069Z,101846.34
2018-06-28T19:54:14.214Z,101850.07
2018-06-28T19:56:43.734Z,101850.14
2018-06-28T19:59:12.161Z,101852.07
2018-06-28T20:01:46.127Z,101855.73
2018-06-28T20:04:14.631Z,101858.05
2018-06-28T20:06:44.335Z,101867.94
2018-06-28T20:09:13.212Z,101866.66
2018-06-28T20:11:41.727Z,101869.87
2018-06-28T20:14:15.594Z,101868.17
2018-06-28T20:17:48.436Z,101870.06
2018-06-28T20:20:19.423Z,101869.77
2018-06-28T20:22:48.052Z,101871.60
2018-06-28T20:25:16.876Z,101876.55
2018-06-28T20:27:50.743Z,101882.45
2018-06-28T20:30:25.125Z,101882.13
2018-06-28T20:32:58.944Z,101889.88
2018-06-28T20:35:27.662Z,101884.17
2018-06-28T20:37:56.510Z,101886.03
2018-06-28T20:40:25.035Z,101882.91
2018-06-28T20:42:53.594Z,101884.72
2018-06-28T20:45:22.209Z,101881.20
2018-06-28T20:47:50.766Z,101881.20
2018-06-28T20:50:19.317Z,101879.41
2018-06-28T20:52:47.862Z,101881.27
2018-06-28T20:55:16.373Z,101876.42
2018-06-28T20:57:44.981Z,101881.78
2018-06-28T21:00:13.462Z,101883.19
2018-06-28T21:02:42.760Z,101892.19
2018-06-28T21:05:11.343Z,101892.25
2018-06-28T21:07:39.849Z,101894.03
2018-06-28T21:10:08.410Z,101897.63
2018-06-28T21:12:36.955Z,101899.89
2018-06-28T21:15:05.616Z,101901.23
2018-06-28T21:17:34.068Z,101903.48
2018-06-28T21:20:03.106Z,101905.27
2018-06-28T21:22:31.565Z,101901.25
2018-06-28T21:25:00.237Z,101905.27
2018-06-28T21:27:28.765Z,101905.68
2018-06-28T21:29:57.273Z,101911.92
2018-06-28T21:32:25.794Z,101913.30
2018-06-28T21:34:54.463Z,101915.08
2018-06-28T21:37:23.164Z,101917.75
2018-06-28T21:39:51.733Z,101914.59
2018-06-28T21:42:20.329Z,101921.72
2018-06-28T21:44:48.774Z,101919.05
2018-06-28T21:47:17.492Z,101913.73
2018-06-28T21:49:46.061Z,101924.87
2018-06-28T21:52:14.516Z,101918.20
2018-06-28T21:54:43.060Z,101923.54
2018-06-28T21:57:12.432Z,101918.60
2018-06-28T21:59:41.056Z,101924.39
2018-06-28T22:02:09.533Z,101923.95
2018-06-28T22:04:38.077Z,101920.82
2018-06-28T22:07:06.689Z,101923.05
2018-06-28T22:09:35.293Z,101920.38
2018-06-28T22:12:03.881Z,101928.39
2018-06-28T22:14:32.826Z,101929.72
2018-06-28T22:17:02.357Z,101928.39
2018-06-28T22:19:31.410Z,101923.03
2018-06-28T22:22:00.512Z,101923.48
2018-06-28T22:24:29.426Z,101930.16
2018-06-28T22:26:58.067Z,101934.61
2018-06-28T22:29:37.446Z,101931.04
2018-06-28T22:32:06.233Z,101931.47
2018-06-28T22:34:34.817Z,101931.91
2018-06-28T22:37:03.349Z,101933.69
2018-06-28T22:39:31.885Z,101931.45
2018-06-28T22:42:26.194Z,101941.23
2018-06-28T22:44:55.030Z,101939.44
2018-06-28T22:47:23.547Z,101938.99
2018-06-28T22:49:52.334Z,101937.64
2018-06-28T22:52:20.918Z,101938.09
2018-06-28T22:54:49.446Z,101935.41
2018-06-28T22:57:18.229Z,101932.71
2018-06-28T22:59:47.049Z,101938.04
2018-06-28T23:02:16.199Z,101941.59
2018-06-28T23:04:45.465Z,101941.14
2018-06-28T23:07:17.665Z,101943.33
2018-06-28T23:09:46.126Z,101949.03
2018-06-28T23:12:14.664Z,101946.33
2018-06-28T23:14:43.229Z,101945.41
2018-06-28T23:17:11.867Z,101951.17
2018-06-28T23:19:40.399Z,101950.25
2018-06-28T23:22:12.619Z,101947.55
2018-06-28T23:24:41.317Z,101947.52
2018-06-28T23:27:09.780Z,101954.55
2018-06-28T23:29:39.489Z,101952.27
2018-06-28T23:32:08.019Z,101954.84
2018-06-28T23:34:36.569Z,101957.47
2018-06-28T23:37:05.680Z,101958.80
2018-06-28T23:39:34.147Z,101953.83
2018-06-28T23:42:02.731Z,101963.02
2018-06-28T23:44:31.321Z,101956.27
2018-06-28T23:47:01.352Z,101955.72
2018-06-28T23:49:30.321Z,101955.56
2018-06-28T23:51:58.905Z,101957.23
2018-06-28T23:54:27.286Z,101954.56
2018-06-28T23:56:55.766Z,101959.89
2018-06-28T23:59:24.237Z,101955.42
